createdAt,value
2022-11-23T00:00:42.438Z,4.78
2022-11-23T00:03:17.540Z,4.76
2022-11-23T00:05:44.064Z,4.76
2022-11-23T00:08:10.642Z,4.77
2022-11-23T00:10:39.333Z,4.77
2022-11-23T00:13:05.958Z,4.77
2022-11-23T00:15:32.554Z,4.77
2022-11-23T00:18:00.887Z,4.76
2022-11-23T00:20:27.661Z,4.71
2022-11-23T00:22:54.162Z,4.70
2022-11-23T00:25:22.433Z,4.67
2022-11-23T00:27:48.914Z,4.64
2022-11-23T00:30:15.919Z,4.62
2022-11-23T00:32:44.116Z,4.57
2022-11-23T00:35:10.582Z,4.54
2022-11-23T00:37:37.038Z,4.53
2022-11-23T00:40:05.876Z,4.49
2022-11-23T00:42:37.696Z,4.46
2022-11-23T00:45:11.705Z,4.42
2022-11-23T00:47:38.297Z,4.38
2022-11-23T00:50:05.089Z,4.32
2022-11-23T00:52:33.316Z,4.27
2022-11-23T00:54:59.813Z,4.22
2022-11-23T00:57:26.281Z,4.17
2022-11-23T00:59:52.998Z,4.09
2022-11-23T01:02:19.768Z,4.01
2022-11-23T01:04:46.230Z,3.90
2022-11-23T01:07:12.904Z,3.83
2022-11-23T01:09:39.443Z,3.78
2022-11-23T01:12:06.284Z,3.73
2022-11-23T01:14:34.597Z,3.70
2022-11-23T01:17:01.109Z,3.64
2022-11-23T01:19:27.605Z,3.60
2022-11-23T01:21:54.317Z,3.57
2022-11-23T01:24:22.215Z,3.54
2022-11-23T01:26:54.733Z,3.51
2022-11-23T01:29:24.255Z,3.52
2022-11-23T01:31:50.800Z,3.53
2022-11-23T01:34:17.456Z,3.50
2022-11-23T01:36:45.114Z,3.47
2022-11-23T01:39:12.582Z,3.43
2022-11-23T01:41:41.601Z,3.42
2022-11-23T01:44:28.113Z,3.40
2022-11-23T01:46:57.217Z,3.43
2022-11-23T01:49:24.472Z,3.40
2022-11-23T01:51:56.808Z,3.37
2022-11-23T01:54:36.513Z,3.36
2022-11-23T01:57:14.184Z,3.35
2022-11-23T01:59:40.757Z,3.29
2022-11-23T02:02:07.663Z,3.26
2022-11-23T02:04:41.531Z,3.29
2022-11-23T02:07:08.917Z,3.28
2022-11-23T02:09:35.949Z,3.27
2022-11-23T02:12:02.760Z,3.25
2022-11-23T02:14:31.225Z,3.23
2022-11-23T02:16:59.333Z,3.22
2022-11-23T02:19:42.492Z,3.20
2022-11-23T02:22:16.056Z,3.14
2022-11-23T02:24:51.478Z,3.06
2022-11-23T02:27:18.310Z,3.01
2022-11-23T02:29:46.234Z,2.95
2022-11-23T02:32:17.921Z,2.87
2022-11-23T02:34:44.413Z,2.80
2022-11-23T02:37:10.861Z,2.71
2022-11-23T02:39:46.914Z,2.64
2022-11-23T02:42:19.989Z,2.57
2022-11-23T02:44:49.508Z,2.50
2022-11-23T02:47:16.190Z,2.41
2022-11-23T02:49:47.217Z,2.37
2022-11-23T02:52:14.328Z,2.31
2022-11-23T02:54:40.812Z,2.25
2022-11-23T02:57:16.078Z,2.19
2022-11-23T02:59:42.574Z,2.16
2022-11-23T03:02:09.267Z,2.14
2022-11-23T03:04:35.946Z,2.12
2022-11-23T03:07:02.729Z,2.08
2022-11-23T03:09:29.816Z,2.05
2022-11-23T03:11:58.292Z,2.01
2022-11-23T03:14:25.790Z,2.00
2022-11-23T03:16:52.625Z,2.05
2022-11-23T03:19:19.282Z,2.11
2022-11-23T03:21:45.784Z,2.15
2022-11-23T03:24:12.258Z,2.15
2022-11-23T03:26:40.541Z,2.14
2022-11-23T03:29:08.938Z,2.12
2022-11-23T03:31:35.501Z,2.08
2022-11-23T03:34:03.748Z,2.04
2022-11-23T03:36:30.271Z,2.03
2022-11-23T03:38:56.942Z,2.04
2022-11-23T03:41:23.607Z,1.97
2022-11-23T03:43:50.123Z,2.01
2022-11-23T03:46:16.607Z,2.00
2022-11-23T03:48:44.818Z,1.95
2022-11-23T03:51:11.676Z,1.93
2022-11-23T03:53:38.140Z,1.93
2022-11-23T03:56:06.797Z,1.89
2022-11-23T03:58:33.293Z,1.87
2022-11-23T04:00:59.824Z,1.87
2022-11-23T04:03:35.840Z,1.84
2022-11-23T04:06:02.374Z,1.83
2022-11-23T04:08:28.834Z,1.76
2022-11-23T04:10:59.558Z,1.67
2022-11-23T04:13:26.344Z,1.63
2022-11-23T04:15:56.309Z,1.63
2022-11-23T04:18:23.031Z,1.72
2022-11-23T04:20:51.860Z,1.77
2022-11-23T04:23:18.333Z,1.71
2022-11-23T04:25:46.026Z,1.64
2022-11-23T04:28:12.541Z,1.58
2022-11-23T04:30:39.010Z,1.50
2022-11-23T04:33:07.256Z,1.45
2022-11-23T04:35:34.312Z,1.44
2022-11-23T04:38:00.790Z,1.45
2022-11-23T04:40:27.437Z,1.44
2022-11-23T04:43:01.576Z,1.40
2022-11-23T04:45:28.715Z,1.44
2022-11-23T04:47:55.154Z,1.42
2022-11-23T04:50:21.701Z,1.42
2022-11-23T04:52:48.396Z,1.52
2022-11-23T04:55:18.461Z,1.58
2022-11-23T04:57:45.035Z,1.64
2022-11-23T05:00:12.550Z,1.71
2022-11-23T05:02:39.301Z,1.74
2022-11-23T05:05:06.072Z,1.87
2022-11-23T05:07:37.437Z,1.85
2022-11-23T05:10:04.689Z,1.95
2022-11-23T05:12:31.255Z,1.99
2022-11-23T05:15:04.316Z,1.94
2022-11-23T05:17:30.835Z,1.91
2022-11-23T05:19:57.302Z,1.83
2022-11-23T05:22:29.959Z,1.79
2022-11-23T05:25:03.055Z,1.70
2022-11-23T05:27:29.582Z,1.62
2022-11-23T05:29:56.113Z,1.56
2022-11-23T05:32:22.810Z,1.57
2022-11-23T05:34:50.037Z,1.59
2022-11-23T05:37:21.151Z,1.61
2022-11-23T05:39:47.736Z,1.59
2022-11-23T05:42:14.209Z,1.58
2022-11-23T05:44:40.727Z,1.56
2022-11-23T05:47:10.367Z,1.54
2022-11-23T05:49:37.126Z,1.49
2022-11-23T05:52:03.706Z,1.48
2022-11-23T05:54:37.058Z,1.47
2022-11-23T05:57:09.861Z,1.42
2022-11-23T05:59:36.324Z,1.40
2022-11-23T06:02:14.954Z,1.35
2022-11-23T06:04:42.267Z,1.30
2022-11-23T06:07:08.767Z,1.28
2022-11-23T06:09:36.223Z,1.27
2022-11-23T06:12:02.896Z,1.23
2022-11-23T06:14:29.362Z,1.25
2022-11-23T06:16:57.889Z,1.21
2022-11-23T06:19:24.393Z,1.17
2022-11-23T06:21:50.899Z,1.12
2022-11-23T06:24:21.873Z,1.12
2022-11-23T06:26:48.402Z,1.17
2022-11-23T06:29:14.953Z,1.24
2022-11-23T06:31:43.119Z,1.32
2022-11-23T06:34:11.902Z,1.32
2022-11-23T06:36:38.427Z,1.39
2022-11-23T06:39:05.186Z,1.49
2022-11-23T06:41:32.714Z,1.54
2022-11-23T06:44:01.058Z,1.57
2022-11-23T06:46:29.344Z,1.51
2022-11-23T06:48:55.914Z,1.48
2022-11-23T06:51:22.485Z,1.51
2022-11-23T06:53:48.973Z,1.53
2022-11-23T06:56:15.612Z,1.54
2022-11-23T06:58:42.511Z,1.58
2022-11-23T07:01:11.764Z,1.57
2022-11-23T07:03:38.468Z,1.56
2022-11-23T07:06:06.618Z,1.61
2022-11-23T07:08:37.806Z,1.62
2022-11-23T07:11:06.757Z,1.61
2022-11-23T07:13:35.713Z,1.62
2022-11-23T07:16:04.453Z,1.62
2022-11-23T07:18:31.008Z,1.64
2022-11-23T07:20:59.258Z,1.71
2022-11-23T07:23:28.334Z,2.00
2022-11-23T07:25:59.257Z,2.93
2022-11-23T07:28:25.765Z,3.81
2022-11-23T07:30:53.008Z,4.55
2022-11-23T07:33:19.548Z,5.16
2022-11-23T07:35:46.123Z,5.31
2022-11-23T07:38:17.126Z,5.81
2022-11-23T07:40:43.972Z,6.19
2022-11-23T07:43:10.453Z,6.61
2022-11-23T07:45:39.584Z,7.09
2022-11-23T07:48:08.355Z,7.02
2022-11-23T07:50:36.649Z,7.20
2022-11-23T07:53:08.276Z,7.40
2022-11-23T07:55:34.980Z,7.87
2022-11-23T07:58:05.164Z,8.47
2022-11-23T08:00:33.597Z,8.91
2022-11-23T08:05:47.258Z,9.30
2022-11-23T08:08:14.078Z,9.38
2022-11-23T08:10:46.157Z,9.40
2022-11-23T08:13:17.420Z,9.66
2022-11-23T08:15:46.464Z,9.97
2022-11-23T08:18:15.400Z,10.07
2022-11-23T08:20:41.970Z,9.78
2022-11-23T08:23:08.430Z,9.51
2022-11-23T08:25:39.473Z,9.77
2022-11-23T08:28:07.811Z,10.27
2022-11-23T08:30:35.514Z,10.38
2022-11-23T08:33:11.416Z,10.47
2022-11-23T08:35:39.455Z,10.55
2022-11-23T08:38:07.305Z,10.88
2022-11-23T08:40:34.328Z,11.15
2022-11-23T08:43:00.879Z,11.36
2022-11-23T08:45:27.490Z,10.94
2022-11-23T08:47:55.839Z,10.76
2022-11-23T08:50:22.829Z,10.86
2022-11-23T08:52:55.405Z,10.46
2022-11-23T08:55:26.514Z,10.40
2022-11-23T08:57:59.590Z,10.39
2022-11-23T09:00:32.900Z,11.07
2022-11-23T09:03:00.109Z,10.90
2022-11-23T09:05:28.005Z,10.62
2022-11-23T09:08:03.437Z,10.42
2022-11-23T09:10:30.036Z,10.27
2022-11-23T09:12:56.493Z,10.30
2022-11-23T09:15:24.776Z,10.46
2022-11-23T09:17:51.988Z,10.44
2022-11-23T09:20:18.694Z,10.77
2022-11-23T09:22:54.069Z,10.53
2022-11-23T09:25:22.978Z,10.57
2022-11-23T09:27:50.225Z,10.30
2022-11-23T09:30:19.251Z,10.80
2022-11-23T09:32:45.774Z,11.11
2022-11-23T09:35:12.930Z,10.82
2022-11-23T09:37:41.184Z,10.87
2022-11-23T09:40:09.850Z,10.75
2022-11-23T09:42:57.395Z,10.80
2022-11-23T09:45:42.852Z,10.59
2022-11-23T09:48:41.442Z,10.71
2022-11-23T09:51:16.931Z,10.89
2022-11-23T09:53:53.065Z,11.06
2022-11-23T09:56:51.070Z,11.24
2022-11-23T09:59:28.207Z,11.67
2022-11-23T10:01:55.512Z,11.33
2022-11-23T10:04:23.632Z,11.42
2022-11-23T10:10:16.357Z,11.82
2022-11-23T10:13:09.012Z,11.76
2022-11-23T10:15:48.741Z,11.22
2022-11-23T10:18:35.019Z,10.88
2022-11-23T10:21:08.124Z,10.71
2022-11-23T10:23:48.803Z,10.40
2022-11-23T10:26:19.694Z,10.62
2022-11-23T10:28:47.688Z,10.52
2022-11-23T10:31:19.478Z,10.75
2022-11-23T10:34:10.172Z,11.13
2022-11-23T10:36:37.917Z,10.69
2022-11-23T10:39:25.153Z,10.92
2022-11-23T10:41:53.567Z,11.41
2022-11-23T10:44:33.103Z,11.42
2022-11-23T10:47:00.395Z,10.82
2022-11-23T10:49:30.203Z,10.65
2022-11-23T10:52:05.244Z,11.08
2022-11-23T10:54:53.744Z,11.03
2022-11-23T10:57:42.533Z,11.15
2022-11-23T11:00:09.590Z,11.08
2022-11-23T11:02:41.100Z,11.13
2022-11-23T11:06:08.568Z,10.88
2022-11-23T11:08:36.469Z,11.15
2022-11-23T11:11:08.460Z,11.05
2022-11-23T11:13:41.008Z,10.69
2022-11-23T11:16:18.968Z,10.93
2022-11-23T11:18:47.741Z,11.34
2022-11-23T11:21:35.720Z,11.24
2022-11-23T11:24:06.828Z,10.97
2022-11-23T11:26:36.039Z,11.10
2022-11-23T11:29:10.121Z,10.88
2022-11-23T11:32:12.563Z,10.83
2022-11-23T11:34:49.505Z,10.75
2022-11-23T11:37:34.465Z,10.74
2022-11-23T11:40:24.129Z,10.81
2022-11-23T11:42:54.413Z,10.73
2022-11-23T11:45:31.497Z,10.83
2022-11-23T11:48:07.612Z,10.95
2022-11-23T11:50:46.314Z,11.02
2022-11-23T11:53:17.792Z,11.26
2022-11-23T11:56:00.566Z,11.35
2022-11-23T11:58:27.674Z,11.43
2022-11-23T12:01:09.122Z,11.80
2022-11-23T12:03:44.087Z,12.07
2022-11-23T12:06:42.462Z,11.86
2022-11-23T12:09:18.724Z,12.05
2022-11-23T12:11:49.350Z,12.04
2022-11-23T12:14:16.854Z,12.09
2022-11-23T12:17:31.917Z,11.88
2022-11-23T12:20:10.133Z,12.10
2022-11-23T12:23:05.659Z,11.71
2022-11-23T12:25:37.365Z,11.77
2022-11-23T12:28:19.218Z,11.77
2022-11-23T12:31:39.416Z,11.78
2022-11-23T12:34:32.458Z,11.73
2022-11-23T12:37:28.544Z,11.51
2022-11-23T12:40:19.669Z,11.59
2022-11-23T12:42:49.497Z,11.13
2022-11-23T12:45:49.355Z,10.83
2022-11-23T12:48:22.368Z,10.59
2022-11-23T12:50:57.827Z,10.38
2022-11-23T12:53:57.797Z,10.10
2022-11-23T12:56:47.583Z,10.02
2022-11-23T12:59:15.209Z,9.91
2022-11-23T13:01:50.643Z,9.65
2022-11-23T13:04:22.767Z,9.38
2022-11-23T13:07:41.064Z,9.21
2022-11-23T13:10:25.288Z,9.16
2022-11-23T13:13:29.685Z,9.08
2022-11-23T13:16:05.254Z,9.03
2022-11-23T13:19:05.209Z,9.02
2022-11-23T13:21:40.388Z,9.15
2022-11-23T13:24:28.508Z,9.25
2022-11-23T13:27:13.539Z,9.26
2022-11-23T13:30:00.406Z,9.21
2022-11-23T13:32:39.212Z,9.19
2022-11-23T13:35:22.868Z,9.21
2022-11-23T13:37:58.366Z,9.07
2022-11-23T13:40:35.645Z,9.06
2022-11-23T13:43:31.305Z,8.82
2022-11-23T13:46:15.549Z,8.76
2022-11-23T13:48:56.906Z,8.77
2022-11-23T13:51:33.617Z,8.65
2022-11-23T13:54:05.005Z,8.45
2022-11-23T13:56:37.576Z,8.42
2022-11-23T13:59:16.124Z,8.37
2022-11-23T14:02:13.943Z,8.34
2022-11-23T14:04:46.834Z,8.30
2022-11-23T14:10:24.532Z,8.18
2022-11-23T14:13:27.405Z,8.19
2022-11-23T14:16:10.474Z,8.15
2022-11-23T14:19:01.533Z,8.12
2022-11-23T14:21:49.646Z,8.08
2022-11-23T14:24:57.419Z,8.07
2022-11-23T14:27:47.223Z,8.04
2022-11-23T14:30:22.975Z,8.03
2022-11-23T14:33:04.120Z,7.98
2022-11-23T14:35:50.095Z,7.96
2022-11-23T14:38:32.141Z,7.90
2022-11-23T14:41:24.506Z,7.85
2022-11-23T14:43:51.489Z,7.82
2022-11-23T14:46:20.637Z,7.77
2022-11-23T14:48:48.844Z,7.74
2022-11-23T14:51:20.018Z,7.74
2022-11-23T14:53:55.834Z,7.73
2022-11-23T14:56:38.767Z,7.68
2022-11-23T14:59:09.609Z,7.68
2022-11-23T15:01:37.633Z,7.64
2022-11-23T15:04:12.479Z,7.64
2022-11-23T15:09:47.010Z,7.60
2022-11-23T15:12:25.480Z,7.61
2022-11-23T15:14:54.177Z,7.60
2022-11-23T15:17:22.211Z,7.60
2022-11-23T15:20:01.809Z,7.60
2022-11-23T15:22:32.267Z,7.55
2022-11-23T15:25:09.934Z,7.53
2022-11-23T15:27:39.826Z,7.48
2022-11-23T15:30:18.714Z,7.44
2022-11-23T15:32:55.428Z,7.42
2022-11-23T15:35:30.498Z,7.37
2022-11-23T15:37:57.847Z,7.31
2022-11-23T15:40:30.243Z,7.25
2022-11-23T15:42:57.094Z,7.22
2022-11-23T15:45:44.230Z,7.20
2022-11-23T15:48:13.276Z,7.16
2022-11-23T15:50:53.499Z,7.13
2022-11-23T15:53:25.308Z,7.16
2022-11-23T15:55:54.933Z,7.14
2022-11-23T15:58:21.926Z,7.16
2022-11-23T16:01:00.334Z,7.13
2022-11-23T16:03:34.809Z,7.09
2022-11-23T16:06:13.431Z,6.98
2022-11-23T16:08:41.017Z,6.86
2022-11-23T16:11:37.471Z,6.77
2022-11-23T16:14:18.840Z,6.69
2022-11-23T16:16:48.477Z,6.63
2022-11-23T16:19:34.049Z,6.61
2022-11-23T16:22:06.595Z,6.57
2022-11-23T16:24:36.234Z,6.51
2022-11-23T16:27:15.546Z,6.41
2022-11-23T16:29:42.353Z,6.28
2022-11-23T16:32:29.592Z,6.20
2022-11-23T16:35:05.036Z,6.12
2022-11-23T16:37:31.603Z,6.00
2022-11-23T16:39:58.143Z,5.97
2022-11-23T16:42:25.515Z,5.88
2022-11-23T16:44:52.004Z,5.80
2022-11-23T16:47:26.056Z,5.74
2022-11-23T16:49:55.780Z,5.71
2022-11-23T16:52:23.089Z,5.67
2022-11-23T16:54:50.447Z,5.62
2022-11-23T16:57:37.367Z,5.61
2022-11-23T17:00:14.345Z,5.56
2022-11-23T17:02:49.580Z,5.54
2022-11-23T17:05:18.237Z,5.55
2022-11-23T17:07:47.325Z,5.53
2022-11-23T17:10:16.367Z,5.50
2022-11-23T17:12:55.087Z,5.49
2022-11-23T17:15:25.156Z,5.49
2022-11-23T17:17:52.346Z,5.47
2022-11-23T17:20:18.998Z,5.48
2022-11-23T17:22:45.546Z,5.46
2022-11-23T17:25:15.097Z,5.44
2022-11-23T17:27:43.743Z,5.43
2022-11-23T17:30:24.270Z,5.41
2022-11-23T17:32:50.790Z,5.41
2022-11-23T17:35:17.657Z,5.38
2022-11-23T17:37:46.592Z,5.41
2022-11-23T17:40:18.116Z,5.41
2022-11-23T17:42:45.493Z,5.42
2022-11-23T17:45:13.287Z,5.45
2022-11-23T17:47:42.139Z,5.46
2022-11-23T17:50:19.457Z,5.43
2022-11-23T17:52:47.248Z,5.43
2022-11-23T17:55:15.050Z,5.43
2022-11-23T17:57:47.939Z,5.40
2022-11-23T18:00:23.915Z,5.45
2022-11-23T18:02:52.288Z,5.44
2022-11-23T18:05:21.827Z,5.45
2022-11-23T18:07:49.988Z,5.46
2022-11-23T18:10:18.756Z,5.47
2022-11-23T18:12:47.666Z,5.46
2022-11-23T18:15:15.029Z,5.43
2022-11-23T18:17:41.746Z,5.60
2022-11-23T18:20:10.189Z,5.75
2022-11-23T18:22:37.199Z,5.85
2022-11-23T18:25:13.948Z,6.02
2022-11-23T18:27:40.462Z,6.18
2022-11-23T18:30:08.300Z,6.37
2022-11-23T18:35:27.232Z,6.50
2022-11-23T18:37:56.077Z,6.50
2022-11-23T18:40:22.557Z,6.49
2022-11-23T18:42:49.257Z,6.53
2022-11-23T18:45:15.961Z,6.62
2022-11-23T18:47:42.439Z,6.62
2022-11-23T18:50:13.557Z,6.72
2022-11-23T18:52:40.025Z,6.87
2022-11-23T18:55:06.918Z,6.89
2022-11-23T18:57:35.134Z,6.92
2022-11-23T19:00:02.768Z,6.93
2022-11-23T19:02:29.633Z,6.90
2022-11-23T19:04:56.271Z,6.95
2022-11-23T19:07:27.042Z,7.02
2022-11-23T19:09:54.028Z,7.04
2022-11-23T19:12:20.817Z,6.98
2022-11-23T19:14:49.764Z,7.02
2022-11-23T19:17:17.311Z,7.06
2022-11-23T19:19:48.462Z,7.00
2022-11-23T19:22:14.990Z,6.94
2022-11-23T19:24:41.491Z,6.86
2022-11-23T19:27:09.781Z,6.83
2022-11-23T19:29:36.534Z,6.80
2022-11-23T19:32:03.466Z,6.86
2022-11-23T19:34:31.742Z,6.90
2022-11-23T19:36:58.450Z,6.87
2022-11-23T19:39:24.972Z,6.96
2022-11-23T19:41:53.851Z,7.02
2022-11-23T19:44:20.600Z,7.11
2022-11-23T19:46:47.111Z,7.15
2022-11-23T19:49:13.837Z,7.15
2022-11-23T19:51:40.312Z,7.23
2022-11-23T19:54:09.599Z,7.28
2022-11-23T19:56:41.458Z,7.29
2022-11-23T19:59:08.274Z,7.23
2022-11-23T20:01:36.279Z,7.18
2022-11-23T20:04:09.206Z,7.08
2022-11-23T20:06:42.061Z,6.96
2022-11-23T20:09:27.921Z,6.86
2022-11-23T20:11:56.690Z,6.79
2022-11-23T20:14:23.187Z,6.71
2022-11-23T20:16:49.998Z,6.64
2022-11-23T20:19:16.518Z,6.56
2022-11-23T20:21:43.133Z,6.49
2022-11-23T20:24:19.086Z,6.41
2022-11-23T20:26:45.574Z,6.31
2022-11-23T20:29:13.749Z,6.20
2022-11-23T20:31:40.839Z,6.08
2022-11-23T20:34:09.587Z,5.97
2022-11-23T20:36:39.040Z,5.86
2022-11-23T20:39:07.875Z,5.81
2022-11-23T20:41:37.333Z,5.74
2022-11-23T20:44:06.279Z,5.69
2022-11-23T20:47:00.599Z,5.67
2022-11-23T20:49:22.230Z,5.66
2022-11-23T20:51:49.029Z,5.62
2022-11-23T20:54:16.059Z,5.58
2022-11-23T20:56:42.817Z,5.57
2022-11-23T20:59:12.224Z,5.56
2022-11-23T21:01:40.660Z,5.54
2022-11-23T21:04:08.869Z,5.53
2022-11-23T21:06:39.008Z,5.49
2022-11-23T21:09:07.802Z,5.48
2022-11-23T21:11:53.409Z,5.50
2022-11-23T21:14:21.693Z,5.50
2022-11-23T21:16:57.103Z,5.50
2022-11-23T21:19:31.818Z,5.49
2022-11-23T21:22:04.329Z,5.48
2022-11-23T21:24:31.654Z,5.48
2022-11-23T21:26:58.614Z,5.48
2022-11-23T21:29:28.427Z,5.48
2022-11-23T21:31:55.092Z,5.46
2022-11-23T21:34:26.914Z,5.46
2022-11-23T21:36:57.435Z,5.47
2022-11-23T21:39:24.887Z,5.48
2022-11-23T21:41:53.944Z,5.49
2022-11-23T21:44:26.467Z,5.49
2022-11-23T21:46:53.061Z,5.49
2022-11-23T21:49:19.592Z,5.48
2022-11-23T21:51:46.261Z,5.47
2022-11-23T21:54:16.533Z,5.44
2022-11-23T21:56:46.855Z,5.43
2022-11-23T21:59:18.450Z,5.39
2022-11-23T22:01:45.320Z,5.37
2022-11-23T22:04:13.662Z,5.39
2022-11-23T22:06:42.125Z,5.40
2022-11-23T22:09:10.015Z,5.38
2022-11-23T22:11:39.450Z,5.40
2022-11-23T22:14:10.326Z,5.40
2022-11-23T22:16:39.291Z,5.41
2022-11-23T22:19:06.351Z,5.40
2022-11-23T22:21:36.602Z,5.41
2022-11-23T22:24:04.758Z,5.38
2022-11-23T22:26:31.621Z,5.37
2022-11-23T22:29:02.829Z,5.36
2022-11-23T22:31:33.190Z,5.31
2022-11-23T22:34:05.843Z,5.27
2022-11-23T22:36:33.109Z,5.24
2022-11-23T22:39:02.588Z,5.19
2022-11-23T22:41:35.094Z,5.14
2022-11-23T22:44:01.742Z,5.08
2022-11-23T22:46:28.277Z,5.02
2022-11-23T22:48:59.486Z,4.95
2022-11-23T22:51:28.755Z,4.92
2022-11-23T22:53:59.040Z,4.92
2022-11-23T22:56:26.947Z,4.91
2022-11-23T22:58:53.615Z,4.87
2022-11-23T23:01:23.044Z,4.86
2022-11-23T23:03:55.781Z,4.82
2022-11-23T23:06:25.045Z,4.78
2022-11-23T23:08:57.425Z,4.75
2022-11-23T23:11:25.574Z,4.75
2022-11-23T23:13:52.849Z,4.72
2022-11-23T23:16:20.047Z,4.71
2022-11-23T23:18:46.639Z,4.67
2022-11-23T23:21:15.378Z,4.61
2022-11-23T23:23:47.377Z,4.55
2022-11-23T23:26:16.050Z,4.50
2022-11-23T23:28:43.296Z,4.52
2022-11-23T23:31:16.403Z,4.50
2022-11-23T23:33:43.878Z,4.51
2022-11-23T23:36:14.144Z,4.52
2022-11-23T23:38:41.261Z,4.54
2022-11-23T23:41:09.205Z,4.53
2022-11-23T23:43:36.148Z,4.54
2022-11-23T23:46:05.351Z,4.53
2022-11-23T23:48:35.965Z,4.52
2022-11-23T23:51:21.567Z,4.54
2022-11-23T23:53:51.338Z,4.57
2022-11-23T23:56:27.294Z,4.59
2022-11-23T23:59:00.148Z,4.53
